createdAt,value
2023-01-30T01:38:24.395Z,-2.19
2023-01-30T01:41:02.085Z,-1.94
2023-01-30T01:43:34.183Z,-1.80
2023-01-30T01:46:16.840Z,-1.71
2023-01-30T01:48:48.691Z,-1.67
2023-01-30T01:51:17.988Z,-1.64
2023-01-30T01:53:50.505Z,-1.61
2023-01-30T01:56:18.111Z,-1.60
2023-01-30T01:58:54.507Z,-1.61
2023-01-30T02:01:23.350Z,-1.62
2023-01-30T02:03:54.280Z,-1.62
2023-01-30T02:06:21.356Z,-1.62
2023-01-30T02:08:54.613Z,-1.62
2023-01-30T02:11:47.274Z,-1.67
2023-01-30T02:14:14.225Z,-1.79
2023-01-30T02:16:41.805Z,-1.92
2023-01-30T02:19:24.911Z,-2.04
2023-01-30T02:22:27.694Z,-2.18
2023-01-30T02:25:08.888Z,-2.34
2023-01-30T02:27:54.213Z,-2.50
2023-01-30T02:30:56.160Z,-2.63
2023-01-30T02:33:43.804Z,-2.68
2023-01-30T02:36:43.787Z,-2.68
2023-01-30T02:39:58.203Z,-2.66
2023-01-30T02:42:52.284Z,-2.65
2023-01-30T02:45:38.184Z,-2.68
2023-01-30T02:48:30.728Z,-2.74
2023-01-30T02:51:26.672Z,-2.82
2023-01-30T02:53:53.585Z,-2.91
2023-01-30T02:56:20.742Z,-3.01
2023-01-30T02:58:58.872Z,-3.14
2023-01-30T03:02:04.986Z,-3.24
2023-01-30T03:04:54.063Z,-3.36
2023-01-30T03:07:34.325Z,-3.43
2023-01-30T03:10:01.518Z,-3.46
2023-01-30T03:12:48.731Z,-3.49
2023-01-30T03:15:23.035Z,-3.48
2023-01-30T03:17:50.019Z,-3.48
2023-01-30T03:20:18.682Z,-3.48
2023-01-30T03:22:46.335Z,-3.52
2023-01-30T03:25:17.557Z,-3.58
2023-01-30T03:27:45.754Z,-3.66
2023-01-30T03:30:14.040Z,-3.75
2023-01-30T03:32:41.792Z,-3.86
2023-01-30T03:35:08.940Z,-3.96
2023-01-30T03:37:37.606Z,-4.05
2023-01-30T03:40:05.994Z,-4.14
2023-01-30T03:42:33.755Z,-4.16
2023-01-30T03:45:08.518Z,-4.17
2023-01-30T03:47:36.065Z,-4.18
2023-01-30T03:50:03.316Z,-4.15
2023-01-30T03:52:34.042Z,-4.13
2023-01-30T03:55:01.292Z,-4.12
2023-01-30T03:57:29.226Z,-4.15
2023-01-30T03:59:56.209Z,-4.19
2023-01-30T04:02:25.670Z,-4.24
2023-01-30T04:04:52.919Z,-4.29
2023-01-30T04:07:21.308Z,-4.30
2023-01-30T04:09:49.433Z,-4.33
2023-01-30T04:12:17.555Z,-4.37
2023-01-30T04:14:50.579Z,-4.38
2023-01-30T04:17:37.608Z,-4.37
2023-01-30T04:20:25.554Z,-4.36
2023-01-30T04:22:55.552Z,-4.38
2023-01-30T04:25:25.085Z,-4.42
2023-01-30T04:27:53.543Z,-4.47
2023-01-30T04:30:24.337Z,-4.54
2023-01-30T04:32:59.605Z,-4.62
2023-01-30T04:35:27.073Z,-4.68
2023-01-30T04:37:54.688Z,-4.71
2023-01-30T04:40:28.656Z,-4.73
2023-01-30T04:42:56.000Z,-4.75
2023-01-30T04:45:46.007Z,-4.75
2023-01-30T04:48:15.268Z,-4.74
2023-01-30T04:50:43.449Z,-4.73
2023-01-30T04:53:10.457Z,-4.69
2023-01-30T04:55:38.852Z,-4.64
2023-01-30T04:58:07.151Z,-4.63
2023-01-30T05:00:35.464Z,-4.65
2023-01-30T05:03:06.559Z,-4.72
2023-01-30T05:05:34.621Z,-4.78
2023-01-30T05:08:02.596Z,-4.86
2023-01-30T05:10:29.861Z,-4.93
2023-01-30T05:13:01.716Z,-4.97
2023-01-30T05:15:28.725Z,-4.99
2023-01-30T05:17:55.694Z,-4.97
2023-01-30T05:20:22.717Z,-4.95
2023-01-30T05:22:53.348Z,-4.93
2023-01-30T05:25:20.589Z,-4.96
2023-01-30T05:27:49.054Z,-4.99
2023-01-30T05:30:19.303Z,-5.02
2023-01-30T05:32:46.389Z,-5.06
2023-01-30T05:35:13.324Z,-5.10
2023-01-30T05:37:41.536Z,-5.13
2023-01-30T05:40:09.819Z,-5.17
2023-01-30T05:42:36.866Z,-5.20
2023-01-30T05:45:06.525Z,-5.20
2023-01-30T05:47:33.693Z,-5.19
2023-01-30T05:50:01.684Z,-5.16
2023-01-30T05:52:29.003Z,-5.15
2023-01-30T05:54:57.994Z,-5.14
2023-01-30T05:57:27.960Z,-5.16
2023-01-30T05:59:54.854Z,-5.19
2023-01-30T06:02:23.452Z,-5.22
2023-01-30T06:04:53.391Z,-5.23
2023-01-30T06:07:21.070Z,-5.25
2023-01-30T06:09:48.093Z,-5.25
2023-01-30T06:12:15.101Z,-5.21
2023-01-30T06:14:43.579Z,-5.16
2023-01-30T06:17:13.073Z,-5.08
2023-01-30T06:19:40.426Z,-4.94
2023-01-30T06:22:07.416Z,-4.76
2023-01-30T06:24:34.875Z,-4.60
2023-01-30T06:27:02.774Z,-4.49
2023-01-30T06:29:30.426Z,-4.45
2023-01-30T06:31:57.648Z,-4.42
2023-01-30T06:34:24.885Z,-4.41
2023-01-30T06:36:52.271Z,-4.40
2023-01-30T06:39:19.287Z,-4.39
2023-01-30T06:41:46.358Z,-4.35
2023-01-30T06:44:13.273Z,-4.30
2023-01-30T06:46:40.426Z,-4.26
2023-01-30T06:49:07.417Z,-4.22
2023-01-30T06:51:35.219Z,-4.14
2023-01-30T06:54:02.292Z,-4.06
2023-01-30T06:56:29.689Z,-3.97
2023-01-30T06:58:56.683Z,-3.88
2023-01-30T07:01:24.060Z,-3.79
2023-01-30T11:30:48.428Z,7.69
2023-01-30T11:33:18.724Z,7.25
2023-01-30T11:35:58.031Z,6.93
2023-01-30T11:38:28.125Z,6.63
2023-01-30T11:41:02.483Z,6.40
2023-01-30T11:43:34.220Z,6.18
2023-01-30T11:46:07.647Z,5.95
2023-01-30T11:49:04.133Z,5.73
2023-01-30T11:51:37.174Z,5.46
2023-01-30T11:54:06.837Z,5.29
2023-01-30T11:56:36.536Z,5.15
2023-01-30T11:59:19.955Z,5.04
2023-01-30T12:01:48.118Z,4.95
2023-01-30T12:04:15.978Z,4.89
2023-01-30T12:06:43.199Z,4.76
2023-01-30T12:09:38.656Z,4.64
2023-01-30T12:12:30.728Z,4.56
2023-01-30T12:15:06.722Z,4.55
2023-01-30T12:17:46.176Z,4.52
2023-01-30T12:20:24.683Z,4.48
2023-01-30T12:23:07.649Z,4.44
2023-01-30T12:25:39.778Z,4.47
2023-01-30T12:28:35.305Z,4.53
2023-01-30T12:31:35.924Z,4.66
2023-01-30T12:34:03.724Z,4.68
2023-01-30T12:36:34.047Z,4.65
2023-01-30T12:39:28.698Z,4.62
2023-01-30T12:42:23.819Z,4.60
2023-01-30T12:45:14.808Z,4.55
2023-01-30T12:48:13.065Z,4.46
2023-01-30T12:50:54.683Z,4.36
2023-01-30T12:53:45.653Z,4.26
2023-01-30T12:56:30.661Z,4.03
2023-01-30T12:59:43.869Z,3.79
2023-01-30T13:02:52.239Z,3.52
2023-01-30T13:05:59.584Z,3.27
2023-01-30T13:08:57.932Z,3.05
2023-01-30T13:11:38.151Z,2.91
2023-01-30T13:14:31.733Z,2.85
2023-01-30T13:17:14.222Z,2.82
2023-01-30T13:20:01.402Z,2.81
2023-01-30T13:22:56.280Z,2.79
2023-01-30T13:25:29.539Z,2.78
2023-01-30T13:28:03.048Z,2.76
2023-01-30T13:30:30.391Z,2.67
2023-01-30T13:32:59.224Z,2.58
2023-01-30T13:35:30.520Z,2.49
2023-01-30T13:37:57.583Z,2.38
2023-01-30T13:40:28.770Z,2.25
2023-01-30T13:43:07.668Z,2.13
2023-01-30T13:45:36.795Z,2.00
2023-01-30T13:48:42.444Z,1.89
2023-01-30T13:51:26.036Z,1.72
2023-01-30T13:53:56.063Z,1.57
2023-01-30T13:56:43.335Z,1.43
2023-01-30T13:59:29.866Z,1.27
2023-01-30T14:02:03.029Z,1.14
2023-01-30T14:04:42.279Z,1.04
2023-01-30T14:07:21.401Z,0.96
2023-01-30T14:10:06.357Z,0.88
2023-01-30T14:12:41.015Z,0.78
2023-01-30T14:15:14.156Z,0.74
2023-01-30T14:18:01.828Z,0.69
2023-01-30T14:20:30.729Z,0.64
2023-01-30T14:22:58.739Z,0.60
2023-01-30T14:25:29.816Z,0.57
2023-01-30T14:27:59.975Z,0.54
2023-01-30T14:30:48.720Z,0.49
2023-01-30T14:33:19.225Z,0.45
2023-01-30T14:36:02.352Z,0.41
2023-01-30T14:38:34.367Z,0.36
2023-01-30T14:41:01.343Z,0.30
2023-01-30T14:43:38.018Z,0.26
2023-01-30T14:46:08.517Z,0.19
2023-01-30T14:48:41.741Z,0.12
2023-01-30T14:51:38.159Z,0.02
2023-01-30T14:54:12.201Z,-0.06
2023-01-30T14:56:58.593Z,-0.14
2023-01-30T15:00:16.177Z,-0.21
2023-01-30T15:02:51.308Z,-0.28
2023-01-30T15:05:20.978Z,-0.33
2023-01-30T15:08:01.953Z,-0.37
2023-01-30T15:10:38.398Z,-0.42
2023-01-30T15:13:22.889Z,-0.48
2023-01-30T15:16:16.574Z,-0.52
2023-01-30T15:19:02.205Z,-0.58
2023-01-30T15:21:36.774Z,-0.62
2023-01-30T15:24:26.308Z,-0.65
2023-01-30T15:27:21.085Z,-0.66
2023-01-30T15:29:57.703Z,-0.64
2023-01-30T15:32:26.318Z,-0.60
2023-01-30T15:35:18.200Z,-0.56
2023-01-30T15:37:45.476Z,-0.53
2023-01-30T15:40:15.460Z,-0.53
2023-01-30T15:42:45.133Z,-0.55
2023-01-30T15:45:21.100Z,-0.57
2023-01-30T15:48:15.465Z,-0.61
2023-01-30T15:50:53.567Z,-0.66
2023-01-30T15:53:33.006Z,-0.71
2023-01-30T15:56:01.177Z,-0.78
2023-01-30T15:58:28.118Z,-0.85
2023-01-30T16:00:59.915Z,-0.92
2023-01-30T16:03:36.383Z,-0.98
2023-01-30T16:06:03.617Z,-1.04
2023-01-30T16:08:33.861Z,-1.08
2023-01-30T16:11:03.549Z,-1.11
2023-01-30T16:13:32.761Z,-1.12
2023-01-30T20:15:30.034Z,-0.07
2023-01-30T20:36:31.403Z,-0.28
2023-01-30T20:39:21.253Z,-0.32
2023-01-30T20:41:58.985Z,-0.37
2023-01-30T20:44:52.854Z,-0.41
2023-01-30T20:47:39.630Z,-0.39
2023-01-30T20:50:43.343Z,-0.39
2023-01-30T20:53:21.452Z,-0.40
2023-01-30T20:55:59.192Z,-0.41
2023-01-30T21:07:52.155Z,-0.32
2023-01-30T21:10:24.945Z,-0.29
2023-01-30T21:13:06.352Z,-0.24
2023-01-30T21:15:35.876Z,-0.21
2023-01-30T21:18:03.089Z,-0.19
2023-01-30T21:20:30.285Z,-0.19
2023-01-30T21:22:57.580Z,-0.24
2023-01-30T21:25:30.305Z,-0.27
2023-01-30T21:27:57.624Z,-0.30
2023-01-30T21:33:33.090Z,-0.41
2023-01-30T21:36:02.421Z,-0.49
2023-01-30T21:38:51.948Z,-0.56
2023-01-30T21:41:51.581Z,-0.60
2023-01-30T21:44:27.317Z,-0.62
2023-01-30T21:47:06.239Z,-0.63
2023-01-30T21:49:35.838Z,-0.61
2023-01-30T21:52:06.385Z,-0.55
2023-01-30T21:54:34.222Z,-0.50
2023-01-30T21:57:04.219Z,-0.50
2023-01-30T21:59:32.865Z,-0.54
2023-01-30T22:02:03.818Z,-0.54
2023-01-30T22:04:34.538Z,-0.61
2023-01-30T22:07:05.276Z,-0.68
2023-01-30T22:09:34.355Z,-0.72
2023-01-30T22:12:02.419Z,-0.78
2023-01-30T22:14:30.531Z,-0.84
2023-01-30T22:16:57.965Z,-0.90
2023-01-30T22:19:27.998Z,-0.94
2023-01-30T22:21:57.142Z,-0.97
2023-01-30T22:24:27.698Z,-0.97
2023-01-30T22:26:55.928Z,-0.97
2023-01-30T22:29:23.064Z,-0.95
2023-01-30T22:31:51.863Z,-0.94
2023-01-30T22:34:19.259Z,-0.90
2023-01-30T22:36:49.333Z,-0.85
2023-01-30T22:39:17.345Z,-0.80
2023-01-30T22:41:46.289Z,-0.73
2023-01-30T22:44:14.404Z,-0.66
2023-01-30T22:46:41.772Z,-0.60
2023-01-30T22:49:08.882Z,-0.57
2023-01-30T22:51:43.143Z,-0.56
2023-01-30T22:54:15.139Z,-0.56
2023-01-30T22:56:47.550Z,-0.58
2023-01-30T22:59:17.305Z,-0.62
2023-01-30T23:01:50.558Z,-0.65
2023-01-30T23:04:19.736Z,-0.67
2023-01-30T23:06:48.412Z,-0.68
2023-01-30T23:09:17.861Z,-0.70
2023-01-30T23:12:12.753Z,-0.71
2023-01-30T23:14:42.389Z,-0.73
2023-01-30T23:17:31.457Z,-0.73
2023-01-30T23:19:59.010Z,-0.72
2023-01-30T23:22:26.011Z,-0.73
2023-01-30T23:24:52.985Z,-0.74
2023-01-30T23:27:20.172Z,-0.72
2023-01-30T23:29:47.428Z,-0.69
2023-01-30T23:32:14.647Z,-0.66
2023-01-30T23:34:42.438Z,-0.62
2023-01-30T23:37:09.292Z,-0.59
2023-01-30T23:39:40.038Z,-0.53
2023-01-30T23:42:07.957Z,-0.48
2023-01-30T23:44:36.497Z,-0.47
2023-01-30T23:47:04.845Z,-0.47
2023-01-30T23:49:32.827Z,-0.48
2023-01-30T23:51:59.794Z,-0.48
2023-01-30T23:54:32.509Z,-0.49
2023-01-30T23:56:59.613Z,-0.51
2023-01-30T23:59:27.255Z,-0.55
